Terminal Aerodrome Forecast
Issued by NWS

Home | Current Version | Previous Version | Text Only | Print | Product List | Glossary On
Versions: 1 2 3 4 5 6 7 8 9 10 11 12 13 14 15 16 17 18
000
FTUS45 KSLC 310203 AAA
TAFBCE
TAF AMD
KBCE 310203Z 3102/3124 03011KT P6SM -SHRA BKN080 OVC100
      TEMPO 3102/3104 VRB15G25KT 6SM -TSRA BKN070CB
     FM310400 28009KT P6SM SCT080 BKN100
     FM311700 28009KT P6SM VCSH FEW070 BKN100
     FM311900 25007KT P6SM VCTS SCT080CB BKN100=

USA.gov is the U.S. government's official web portal to all federal, state and local government web resources and services.